sensor_id;sensor_type;location;lat;lon;timestamp;pressure;altitude;pressure_sealevel;temperature;humidity
25855;BME280;13680;49.936;11.344;2023-07-08T00:01:53;97078.06;;;16.19;56.43
25855;BME280;13680;49.936;11.344;2023-07-08T00:04:19;97075.19;;;16.15;56.40
25855;BME280;13680;49.936;11.344;2023-07-08T00:06:45;97080.81;;;16.10;56.71
25855;BME280;13680;49.936;11.344;2023-07-08T00:09:11;97081.25;;;16.12;56.79
25855;BME280;13680;49.936;11.344;2023-07-08T00:11:37;97081.75;;;16.14;56.76
25855;BME280;13680;49.936;11.344;2023-07-08T00:14:02;97072.53;;;16.07;56.87
25855;BME280;13680;49.936;11.344;2023-07-08T00:16:28;97068.56;;;16.04;57.24
25855;BME280;13680;49.936;11.344;2023-07-08T00:18:53;97062.81;;;16.06;56.99
25855;BME280;13680;49.936;11.344;2023-07-08T00:21:18;97074.81;;;15.96;57.12
25855;BME280;13680;49.936;11.344;2023-07-08T00:26:23;97074.06;;;15.86;57.50
25855;BME280;13680;49.936;11.344;2023-07-08T00:28:50;97067.69;;;15.82;57.55
25855;BME280;13680;49.936;11.344;2023-07-08T00:31:15;97061.47;;;15.82;57.69
25855;BME280;13680;49.936;11.344;2023-07-08T00:33:41;97065.28;;;15.81;57.61
25855;BME280;13680;49.936;11.344;2023-07-08T00:36:14;97065.59;;;15.79;57.55
25855;BME280;13680;49.936;11.344;2023-07-08T00:38:40;97068.50;;;15.74;57.70
25855;BME280;13680;49.936;11.344;2023-07-08T00:43:52;97066.81;;;15.61;58.25
25855;BME280;13680;49.936;11.344;2023-07-08T00:48:55;97064.44;;;15.50;58.75
25855;BME280;13680;49.936;11.344;2023-07-08T00:51:23;97058.69;;;15.52;58.48
25855;BME280;13680;49.936;11.344;2023-07-08T00:53:49;97064.28;;;15.55;58.45
25855;BME280;13680;49.936;11.344;2023-07-08T00:56:27;97072.56;;;15.50;58.52
25855;BME280;13680;49.936;11.344;2023-07-08T00:59:01;97069.72;;;15.38;58.70
25855;BME280;13680;49.936;11.344;2023-07-08T01:01:29;97071.53;;;15.25;59.41
25855;BME280;13680;49.936;11.344;2023-07-08T01:03:58;97066.34;;;14.76;61.02
25855;BME280;13680;49.936;11.344;2023-07-08T01:06:27;97076.84;;;14.86;60.86
25855;BME280;13680;49.936;11.344;2023-07-08T01:08:58;97062.47;;;14.95;60.73
25855;BME280;13680;49.936;11.344;2023-07-08T01:11:24;97062.31;;;15.00;61.01
25855;BME280;13680;49.936;11.344;2023-07-08T01:13:51;97062.63;;;14.98;61.13
25855;BME280;13680;49.936;11.344;2023-07-08T01:16:16;97057.03;;;15.12;60.45
25855;BME280;13680;49.936;11.344;2023-07-08T01:18:42;97060.09;;;15.11;60.60
25855;BME280;13680;49.936;11.344;2023-07-08T01:21:34;97053.53;;;15.12;60.42
25855;BME280;13680;49.936;11.344;2023-07-08T01:24:01;97053.84;;;15.10;60.49
25855;BME280;13680;49.936;11.344;2023-07-08T01:26:29;97068.22;;;15.11;60.46
25855;BME280;13680;49.936;11.344;2023-07-08T01:28:56;97065.97;;;15.04;60.63
25855;BME280;13680;49.936;11.344;2023-07-08T01:31:22;97055.78;;;15.01;60.79
25855;BME280;13680;49.936;11.344;2023-07-08T01:33:48;97048.44;;;15.10;60.24
25855;BME280;13680;49.936;11.344;2023-07-08T01:36:16;97048.16;;;15.03;60.66
25855;BME280;13680;49.936;11.344;2023-07-08T01:38:42;97052.91;;;15.06;60.62
25855;BME280;13680;49.936;11.344;2023-07-08T01:41:12;97046.72;;;14.97;61.03
25855;BME280;13680;49.936;11.344;2023-07-08T01:43:37;97052.13;;;14.97;60.90
25855;BME280;13680;49.936;11.344;2023-07-08T01:46:04;97056.28;;;14.85;61.19
25855;BME280;13680;49.936;11.344;2023-07-08T01:48:36;97054.69;;;14.76;61.73
25855;BME280;13680;49.936;11.344;2023-07-08T01:51:06;97049.09;;;14.81;61.52
25855;BME280;13680;49.936;11.344;2023-07-08T01:53:35;97045.47;;;14.77;61.66
25855;BME280;13680;49.936;11.344;2023-07-08T01:56:01;97053.91;;;14.75;62.05
25855;BME280;13680;49.936;11.344;2023-07-08T01:58:27;97058.38;;;14.71;62.28
25855;BME280;13680;49.936;11.344;2023-07-08T02:00:53;97058.38;;;14.71;61.82
25855;BME280;13680;49.936;11.344;2023-07-08T02:03:19;97058.19;;;14.67;62.52
25855;BME280;13680;49.936;11.344;2023-07-08T02:05:44;97059.13;;;14.63;62.75
25855;BME280;13680;49.936;11.344;2023-07-08T02:08:10;97073.16;;;14.65;62.22
25855;BME280;13680;49.936;11.344;2023-07-08T02:10:37;97068.84;;;14.64;62.46
25855;BME280;13680;49.936;11.344;2023-07-08T02:13:03;97066.78;;;14.52;62.65
25855;BME280;13680;49.936;11.344;2023-07-08T02:15:29;97076.78;;;14.51;62.35
25855;BME280;13680;49.936;11.344;2023-07-08T02:17:54;97073.13;;;14.56;62.32
25855;BME280;13680;49.936;11.344;2023-07-08T02:20:20;97073.63;;;14.49;62.67
25855;BME280;13680;49.936;11.344;2023-07-08T02:22:45;97073.28;;;14.42;63.36
25855;BME280;13680;49.936;11.344;2023-07-08T02:25:10;97071.06;;;14.44;63.48
25855;BME280;13680;49.936;11.344;2023-07-08T02:27:37;97078.03;;;14.45;63.18
25855;BME280;13680;49.936;11.344;2023-07-08T02:30:03;97076.59;;;14.39;63.74
25855;BME280;13680;49.936;11.344;2023-07-08T02:32:28;97078.19;;;14.40;63.47
25855;BME280;13680;49.936;11.344;2023-07-08T02:34:54;97075.50;;;14.40;63.40
25855;BME280;13680;49.936;11.344;2023-07-08T02:37:19;97077.72;;;14.38;63.75
25855;BME280;13680;49.936;11.344;2023-07-08T02:39:44;97072.31;;;14.38;63.64
25855;BME280;13680;49.936;11.344;2023-07-08T02:42:09;97075.81;;;14.38;63.38
25855;BME280;13680;49.936;11.344;2023-07-08T02:44:35;97081.69;;;14.32;63.86
25855;BME280;13680;49.936;11.344;2023-07-08T02:47:00;97087.56;;;14.34;63.66
25855;BME280;13680;49.936;11.344;2023-07-08T02:49:26;97075.97;;;14.33;63.79
25855;BME280;13680;49.936;11.344;2023-07-08T02:51:51;97079.00;;;14.32;63.57
25855;BME280;13680;49.936;11.344;2023-07-08T02:54:17;97084.22;;;14.28;63.58
25855;BME280;13680;49.936;11.344;2023-07-08T02:56:43;97088.69;;;14.24;64.04
25855;BME280;13680;49.936;11.344;2023-07-08T02:59:08;97077.84;;;14.15;64.38
25855;BME280;13680;49.936;11.344;2023-07-08T03:01:33;97071.94;;;14.13;64.59
25855;BME280;13680;49.936;11.344;2023-07-08T03:04:06;97067.63;;;14.03;65.71
25855;BME280;13680;49.936;11.344;2023-07-08T03:06:34;97071.94;;;14.13;65.05
25855;BME280;13680;49.936;11.344;2023-07-08T03:08:59;97070.97;;;14.09;64.84
25855;BME280;13680;49.936;11.344;2023-07-08T03:11:25;97075.91;;;14.07;64.79
25855;BME280;13680;49.936;11.344;2023-07-08T03:13:50;97075.44;;;14.05;65.04
25855;BME280;13680;49.936;11.344;2023-07-08T03:16:15;97072.72;;;14.05;64.92
25855;BME280;13680;49.936;11.344;2023-07-08T03:18:41;97070.81;;;14.05;65.11
25855;BME280;13680;49.936;11.344;2023-07-08T03:21:15;97070.81;;;14.05;64.99
25855;BME280;13680;49.936;11.344;2023-07-08T03:23:41;97085.59;;;14.08;65.33
25855;BME280;13680;49.936;11.344;2023-07-08T03:26:07;97077.19;;;14.10;65.15
25855;BME280;13680;49.936;11.344;2023-07-08T03:28:32;97080.34;;;14.03;65.18
25855;BME280;13680;49.936;11.344;2023-07-08T03:30:58;97084.19;;;14.11;65.55
25855;BME280;13680;49.936;11.344;2023-07-08T03:33:23;97086.25;;;14.05;64.64
25855;BME280;13680;49.936;11.344;2023-07-08T03:35:49;97087.19;;;14.00;65.04
25855;BME280;13680;49.936;11.344;2023-07-08T03:38:14;97091.97;;;14.03;65.65
25855;BME280;13680;49.936;11.344;2023-07-08T03:40:40;97082.25;;;14.02;65.84
25855;BME280;13680;49.936;11.344;2023-07-08T03:43:05;97087.84;;;14.06;65.29
25855;BME280;13680;49.936;11.344;2023-07-08T03:45:30;97105.03;;;14.10;65.40
25855;BME280;13680;49.936;11.344;2023-07-08T03:47:56;97095.81;;;14.11;65.45
25855;BME280;13680;49.936;11.344;2023-07-08T03:50:23;97108.69;;;14.14;65.36
25855;BME280;13680;49.936;11.344;2023-07-08T03:52:51;97117.44;;;14.11;65.92
25855;BME280;13680;49.936;11.344;2023-07-08T03:55:17;97114.28;;;14.18;65.55
25855;BME280;13680;49.936;11.344;2023-07-08T03:57:43;97117.47;;;14.20;65.07
25855;BME280;13680;49.936;11.344;2023-07-08T04:00:09;97113.97;;;14.19;65.01
25855;BME280;13680;49.936;11.344;2023-07-08T04:02:45;97112.22;;;14.23;65.64
25855;BME280;13680;49.936;11.344;2023-07-08T04:05:28;97104.75;;;14.20;65.86
25855;BME280;13680;49.936;11.344;2023-07-08T04:07:55;97101.25;;;14.29;65.22
25855;BME280;13680;49.936;11.344;2023-07-08T04:10:20;97111.91;;;14.34;65.12
25855;BME280;13680;49.936;11.344;2023-07-08T04:12:46;97109.22;;;14.34;65.61
25855;BME280;13680;49.936;11.344;2023-07-08T04:15:12;97104.28;;;14.36;65.31
25855;BME280;13680;49.936;11.344;2023-07-08T04:17:42;97111.47;;;14.40;64.99
25855;BME280;13680;49.936;11.344;2023-07-08T04:20:09;97107.81;;;14.45;64.35
25855;BME280;13680;49.936;11.344;2023-07-08T04:22:36;97119.28;;;14.42;64.55
25855;BME280;13680;49.936;11.344;2023-07-08T04:25:02;97110.50;;;14.45;64.73
25855;BME280;13680;49.936;11.344;2023-07-08T04:27:31;97113.72;;;14.47;64.99
25855;BME280;13680;49.936;11.344;2023-07-08T04:29:56;97108.00;;;14.57;65.19
25855;BME280;13680;49.936;11.344;2023-07-08T04:32:21;97108.03;;;14.66;64.76
25855;BME280;13680;49.936;11.344;2023-07-08T04:34:50;97112.97;;;14.82;64.72
25855;BME280;13680;49.936;11.344;2023-07-08T04:37:15;97110.75;;;14.93;64.33
25855;BME280;13680;49.936;11.344;2023-07-08T04:39:41;97112.34;;;15.11;64.30
25855;BME280;13680;49.936;11.344;2023-07-08T04:42:06;97105.13;;;15.33;63.83
25855;BME280;13680;49.936;11.344;2023-07-08T04:44:31;97109.09;;;15.44;63.58
25855;BME280;13680;49.936;11.344;2023-07-08T04:46:58;97116.53;;;15.65;63.18
25855;BME280;13680;49.936;11.344;2023-07-08T04:49:24;97117.19;;;15.62;63.80
25855;BME280;13680;49.936;11.344;2023-07-08T04:51:51;97114.88;;;15.90;63.00
25855;BME280;13680;49.936;11.344;2023-07-08T04:54:17;97114.16;;;16.11;62.65
25855;BME280;13680;49.936;11.344;2023-07-08T04:56:44;97112.00;;;16.25;62.21
25855;BME280;13680;49.936;11.344;2023-07-08T04:59:12;97110.19;;;16.38;62.28
25855;BME280;13680;49.936;11.344;2023-07-08T05:01:38;97110.59;;;16.49;62.01
25855;BME280;13680;49.936;11.344;2023-07-08T05:04:04;97110.00;;;16.64;61.55
25855;BME280;13680;49.936;11.344;2023-07-08T05:06:31;97111.06;;;16.72;61.44
25855;BME280;13680;49.936;11.344;2023-07-08T05:08:58;97112.88;;;16.68;61.73
25855;BME280;13680;49.936;11.344;2023-07-08T05:11:23;97110.44;;;16.96;61.05
25855;BME280;13680;49.936;11.344;2023-07-08T05:13:49;97112.88;;;17.10;60.79
25855;BME280;13680;49.936;11.344;2023-07-08T05:16:14;97103.88;;;17.18;60.74
25855;BME280;13680;49.936;11.344;2023-07-08T05:18:40;97100.75;;;17.41;60.10
25855;BME280;13680;49.936;11.344;2023-07-08T05:21:05;97104.19;;;17.50;60.05
25855;BME280;13680;49.936;11.344;2023-07-08T05:23:30;97104.19;;;17.50;59.89
25855;BME280;13680;49.936;11.344;2023-07-08T05:25:59;97099.69;;;17.79;58.70
25855;BME280;13680;49.936;11.344;2023-07-08T05:28:25;97106.06;;;17.83;58.37
25855;BME280;13680;49.936;11.344;2023-07-08T05:30:54;97112.44;;;18.00;58.63
25855;BME280;13680;49.936;11.344;2023-07-08T05:33:23;97106.44;;;18.31;57.98
25855;BME280;13680;49.936;11.344;2023-07-08T05:35:49;97108.13;;;18.48;57.42
25855;BME280;13680;49.936;11.344;2023-07-08T05:38:15;97109.09;;;18.69;57.00
25855;BME280;13680;49.936;11.344;2023-07-08T05:40:40;97110.78;;;18.86;57.37
25855;BME280;13680;49.936;11.344;2023-07-08T05:43:06;97114.72;;;19.01;56.91
25855;BME280;13680;49.936;11.344;2023-07-08T05:45:31;97109.03;;;19.06;57.25
25855;BME280;13680;49.936;11.344;2023-07-08T05:47:57;97109.97;;;19.26;56.70
25855;BME280;13680;49.936;11.344;2023-07-08T05:50:22;97100.34;;;19.60;56.10
25855;BME280;13680;49.936;11.344;2023-07-08T05:52:47;97114.03;;;19.76;55.82
25855;BME280;13680;49.936;11.344;2023-07-08T05:55:13;97112.13;;;19.93;55.49
25855;BME280;13680;49.936;11.344;2023-07-08T05:57:38;97119.25;;;20.14;54.86
25855;BME280;13680;49.936;11.344;2023-07-08T06:00:04;97114.13;;;20.44;54.59
25855;BME280;13680;49.936;11.344;2023-07-08T06:02:30;97117.06;;;20.71;54.62
25855;BME280;13680;49.936;11.344;2023-07-08T06:04:55;97118.16;;;20.86;54.62
25855;BME280;13680;49.936;11.344;2023-07-08T06:07:20;97117.03;;;21.06;54.07
25855;BME280;13680;49.936;11.344;2023-07-08T06:09:46;97119.09;;;21.33;53.60
25855;BME280;13680;49.936;11.344;2023-07-08T06:12:11;97120.44;;;21.62;53.13
25855;BME280;13680;49.936;11.344;2023-07-08T06:14:37;97115.72;;;21.82;52.82
25855;BME280;13680;49.936;11.344;2023-07-08T06:17:04;97113.88;;;22.13;52.65
25855;BME280;13680;49.936;11.344;2023-07-08T06:19:29;97121.00;;;22.41;52.46
25855;BME280;13680;49.936;11.344;2023-07-08T06:21:54;97125.56;;;22.60;52.34
25855;BME280;13680;49.936;11.344;2023-07-08T06:24:20;97108.31;;;22.86;47.79
25855;BME280;13680;49.936;11.344;2023-07-08T06:26:46;97112.38;;;23.00;48.05
25855;BME280;13680;49.936;11.344;2023-07-08T06:29:11;97113.47;;;23.22;48.67
25855;BME280;13680;49.936;11.344;2023-07-08T06:31:37;97110.56;;;23.42;47.04
25855;BME280;13680;49.936;11.344;2023-07-08T06:34:02;97113.66;;;23.78;45.59
25855;BME280;13680;49.936;11.344;2023-07-08T06:36:28;97110.28;;;23.92;44.79
25855;BME280;13680;49.936;11.344;2023-07-08T06:38:53;97102.19;;;24.10;44.77
25855;BME280;13680;49.936;11.344;2023-07-08T06:41:18;97101.59;;;24.34;44.02
25855;BME280;13680;49.936;11.344;2023-07-08T06:43:44;97108.00;;;24.57;42.90
25855;BME280;13680;49.936;11.344;2023-07-08T06:46:09;97105.44;;;24.82;42.13
25855;BME280;13680;49.936;11.344;2023-07-08T06:48:35;97106.91;;;24.68;40.99
25855;BME280;13680;49.936;11.344;2023-07-08T06:51:00;97100.06;;;25.07;40.42
25855;BME280;13680;49.936;11.344;2023-07-08T06:53:26;97100.47;;;25.20;40.99
25855;BME280;13680;49.936;11.344;2023-07-08T06:55:51;97086.03;;;25.38;40.38
25855;BME280;13680;49.936;11.344;2023-07-08T06:58:16;97086.84;;;25.49;40.24
25855;BME280;13680;49.936;11.344;2023-07-08T07:00:43;97078.59;;;25.60;39.60
25855;BME280;13680;49.936;11.344;2023-07-08T07:03:09;97083.72;;;25.83;39.45
25855;BME280;13680;49.936;11.344;2023-07-08T07:05:34;97084.91;;;25.86;39.23
25855;BME280;13680;49.936;11.344;2023-07-08T07:07:59;97075.09;;;26.21;38.60
25855;BME280;13680;49.936;11.344;2023-07-08T07:10:25;97080.97;;;26.41;37.62
25855;BME280;13680;49.936;11.344;2023-07-08T07:12:50;97072.66;;;26.59;37.71
25855;BME280;13680;49.936;11.344;2023-07-08T07:15:15;97074.25;;;26.56;37.66
25855;BME280;13680;49.936;11.344;2023-07-08T07:17:41;97078.16;;;26.62;37.55
25855;BME280;13680;49.936;11.344;2023-07-08T07:20:07;97084.41;;;26.92;37.21
25855;BME280;13680;49.936;11.344;2023-07-08T07:22:32;97078.75;;;27.21;35.66
25855;BME280;13680;49.936;11.344;2023-07-08T07:24:58;97079.38;;;27.57;36.68
25855;BME280;13680;49.936;11.344;2023-07-08T07:27:23;97076.66;;;27.47;36.30
25855;BME280;13680;49.936;11.344;2023-07-08T07:29:50;97073.75;;;27.68;36.06
25855;BME280;13680;49.936;11.344;2023-07-08T07:32:17;97076.75;;;27.88;35.75
25855;BME280;13680;49.936;11.344;2023-07-08T07:34:46;97070.19;;;28.20;36.20
25855;BME280;13680;49.936;11.344;2023-07-08T07:37:13;97072.44;;;28.36;35.78
25855;BME280;13680;49.936;11.344;2023-07-08T07:39:39;97066.44;;;28.45;34.87
25855;BME280;13680;49.936;11.344;2023-07-08T07:42:05;97065.06;;;28.61;34.08
25855;BME280;13680;49.936;11.344;2023-07-08T07:44:30;97064.63;;;28.69;34.24
25855;BME280;13680;49.936;11.344;2023-07-08T07:46:55;97069.28;;;29.07;34.23
25855;BME280;13680;49.936;11.344;2023-07-08T07:49:21;97064.19;;;29.36;33.25
25855;BME280;13680;49.936;11.344;2023-07-08T07:51:47;97065.72;;;29.41;31.24
25855;BME280;13680;49.936;11.344;2023-07-08T07:54:15;97069.88;;;29.53;31.00
25855;BME280;13680;49.936;11.344;2023-07-08T07:56:40;97066.66;;;29.31;31.25
25855;BME280;13680;49.936;11.344;2023-07-08T07:59:06;97074.69;;;29.49;30.19
25855;BME280;13680;49.936;11.344;2023-07-08T08:01:31;97077.25;;;29.63;31.32
25855;BME280;13680;49.936;11.344;2023-07-08T08:03:56;97072.50;;;29.64;30.57
25855;BME280;13680;49.936;11.344;2023-07-08T08:06:22;97076.00;;;29.95;29.49
25855;BME280;13680;49.936;11.344;2023-07-08T08:08:47;97071.72;;;30.14;28.57
25855;BME280;13680;49.936;11.344;2023-07-08T08:11:14;97080.31;;;30.44;29.05
25855;BME280;13680;49.936;11.344;2023-07-08T08:13:40;97085.34;;;30.52;29.44
25855;BME280;13680;49.936;11.344;2023-07-08T08:16:05;97075.75;;;30.57;28.12
25855;BME280;13680;49.936;11.344;2023-07-08T08:18:30;97078.28;;;30.48;28.42
25855;BME280;13680;49.936;11.344;2023-07-08T08:20:56;97068.28;;;30.74;28.22
25855;BME280;13680;49.936;11.344;2023-07-08T08:23:21;97061.44;;;30.99;27.81
25855;BME280;13680;49.936;11.344;2023-07-08T08:25:47;97061.78;;;31.01;26.42
25855;BME280;13680;49.936;11.344;2023-07-08T08:28:12;97069.97;;;30.68;27.70
25855;BME280;13680;49.936;11.344;2023-07-08T08:30:38;97068.66;;;30.76;27.46
25855;BME280;13680;49.936;11.344;2023-07-08T08:33:03;97076.25;;;31.12;28.36
25855;BME280;13680;49.936;11.344;2023-07-08T08:35:29;97082.09;;;30.98;26.07
25855;BME280;13680;49.936;11.344;2023-07-08T08:37:54;97074.81;;;31.61;26.05
25855;BME280;13680;49.936;11.344;2023-07-08T08:40:20;97076.66;;;31.84;25.64
25855;BME280;13680;49.936;11.344;2023-07-08T08:42:46;97076.38;;;31.62;25.42
25855;BME280;13680;49.936;11.344;2023-07-08T08:45:18;97072.25;;;32.03;25.06
25855;BME280;13680;49.936;11.344;2023-07-08T08:47:50;97079.97;;;32.28;25.07
25855;BME280;13680;49.936;11.344;2023-07-08T08:52:50;97075.63;;;31.78;24.36
25855;BME280;13680;49.936;11.344;2023-07-08T08:55:16;97069.03;;;32.21;25.12
25855;BME280;13680;49.936;11.344;2023-07-08T08:57:47;97066.84;;;32.12;25.24
25855;BME280;13680;49.936;11.344;2023-07-08T09:00:21;97075.91;;;32.33;24.74
25855;BME280;13680;49.936;11.344;2023-07-08T09:03:13;97072.38;;;32.45;24.57
25855;BME280;13680;49.936;11.344;2023-07-08T09:05:42;97076.22;;;32.35;24.92
25855;BME280;13680;49.936;11.344;2023-07-08T09:08:24;97072.25;;;32.20;25.03
25855;BME280;13680;49.936;11.344;2023-07-08T09:11:00;97067.94;;;32.48;26.04
25855;BME280;13680;49.936;11.344;2023-07-08T09:13:32;97074.25;;;32.03;26.24
25855;BME280;13680;49.936;11.344;2023-07-08T09:19:11;97068.41;;;32.13;24.63
25855;BME280;13680;49.936;11.344;2023-07-08T09:22:25;97063.78;;;32.40;23.79
25855;BME280;13680;49.936;11.344;2023-07-08T09:24:58;97063.56;;;32.93;22.60
25855;BME280;13680;49.936;11.344;2023-07-08T09:27:24;97054.69;;;33.11;23.00
25855;BME280;13680;49.936;11.344;2023-07-08T09:29:49;97054.22;;;33.00;25.58
25855;BME280;13680;49.936;11.344;2023-07-08T09:32:23;97063.88;;;32.95;23.08
25855;BME280;13680;49.936;11.344;2023-07-08T09:34:51;97054.72;;;33.37;23.36
25855;BME280;13680;49.936;11.344;2023-07-08T09:37:25;97050.16;;;33.43;21.86
25855;BME280;13680;49.936;11.344;2023-07-08T09:39:52;97061.47;;;33.23;22.55
25855;BME280;13680;49.936;11.344;2023-07-08T09:42:18;97060.91;;;33.02;23.10
25855;BME280;13680;49.936;11.344;2023-07-08T09:44:45;97057.50;;;33.50;22.86
25855;BME280;13680;49.936;11.344;2023-07-08T09:47:27;97056.50;;;33.82;20.69
25855;BME280;13680;49.936;11.344;2023-07-08T09:49:57;97061.84;;;33.25;22.23
25855;BME280;13680;49.936;11.344;2023-07-08T09:52:22;97072.00;;;33.44;22.96
25855;BME280;13680;49.936;11.344;2023-07-08T09:54:49;97066.97;;;33.78;21.75
25855;BME280;13680;49.936;11.344;2023-07-08T09:59:46;97058.25;;;34.50;20.18
25855;BME280;13680;49.936;11.344;2023-07-08T10:02:51;97061.09;;;34.24;21.25
25855;BME280;13680;49.936;11.344;2023-07-08T10:05:36;97064.75;;;33.34;22.45
25855;BME280;13680;49.936;11.344;2023-07-08T10:08:08;97069.78;;;33.65;20.88
25855;BME280;13680;49.936;11.344;2023-07-08T10:10:37;97061.03;;;34.15;20.05
25855;BME280;13680;49.936;11.344;2023-07-08T10:13:11;97065.44;;;34.38;20.90
25855;BME280;13680;49.936;11.344;2023-07-08T10:15:42;97057.34;;;34.53;19.37
25855;BME280;13680;49.936;11.344;2023-07-08T10:18:14;97059.47;;;34.14;20.10
25855;BME280;13680;49.936;11.344;2023-07-08T10:21:08;97067.63;;;34.08;20.65
25855;BME280;13680;49.936;11.344;2023-07-08T10:26:21;97057.78;;;34.16;20.46
25855;BME280;13680;49.936;11.344;2023-07-08T10:29:20;97065.44;;;34.95;20.04
25855;BME280;13680;49.936;11.344;2023-07-08T10:34:42;97061.25;;;34.78;22.28
25855;BME280;13680;49.936;11.344;2023-07-08T10:37:55;97062.63;;;34.73;21.91
25855;BME280;13680;49.936;11.344;2023-07-08T10:45:52;97064.00;;;34.20;20.00
25855;BME280;13680;49.936;11.344;2023-07-08T10:48:44;97063.06;;;34.49;19.48
25855;BME280;13680;49.936;11.344;2023-07-08T10:51:34;97072.31;;;35.03;18.88
25855;BME280;13680;49.936;11.344;2023-07-08T10:56:54;97056.94;;;35.62;18.48
25855;BME280;13680;49.936;11.344;2023-07-08T10:59:28;97057.97;;;35.86;19.53
25855;BME280;13680;49.936;11.344;2023-07-08T11:02:17;97058.47;;;36.03;18.25
25855;BME280;13680;49.936;11.344;2023-07-08T11:07:42;97052.16;;;35.81;18.35
25855;BME280;13680;49.936;11.344;2023-07-08T11:10:12;97049.22;;;36.53;18.52
25855;BME280;13680;49.936;11.344;2023-07-08T11:15:28;97048.69;;;35.58;18.27
25855;BME280;13680;49.936;11.344;2023-07-08T11:18:06;97048.75;;;35.36;18.58
25855;BME280;13680;49.936;11.344;2023-07-08T11:20:40;97038.91;;;35.31;19.18
25855;BME280;13680;49.936;11.344;2023-07-08T11:23:31;97043.44;;;35.69;19.17
25855;BME280;13680;49.936;11.344;2023-07-08T11:26:11;97032.19;;;36.19;18.70
25855;BME280;13680;49.936;11.344;2023-07-08T11:28:39;97037.84;;;36.47;17.04
25855;BME280;13680;49.936;11.344;2023-07-08T11:31:05;97032.06;;;36.69;18.56
25855;BME280;13680;49.936;11.344;2023-07-08T11:33:32;97026.38;;;37.16;17.14
25855;BME280;13680;49.936;11.344;2023-07-08T11:36:00;97026.81;;;37.24;16.81
25855;BME280;13680;49.936;11.344;2023-07-08T11:38:26;97024.16;;;37.20;18.61
25855;BME280;13680;49.936;11.344;2023-07-08T11:40:58;97032.25;;;37.37;16.92
25855;BME280;13680;49.936;11.344;2023-07-08T11:43:48;97027.72;;;36.31;17.97
25855;BME280;13680;49.936;11.344;2023-07-08T11:46:19;97019.28;;;36.87;17.26
25855;BME280;13680;49.936;11.344;2023-07-08T11:48:51;97014.69;;;36.38;17.08
25855;BME280;13680;49.936;11.344;2023-07-08T11:51:24;97007.75;;;36.94;20.09
25855;BME280;13680;49.936;11.344;2023-07-08T11:56:47;97005.63;;;37.65;17.15
25855;BME280;13680;49.936;11.344;2023-07-08T11:59:18;97004.81;;;36.89;17.96
25855;BME280;13680;49.936;11.344;2023-07-08T12:09:14;96999.06;;;36.55;17.92
25855;BME280;13680;49.936;11.344;2023-07-08T12:11:44;96999.06;;;36.55;17.79
25855;BME280;13680;49.936;11.344;2023-07-08T12:14:10;96995.63;;;36.97;17.49
25855;BME280;13680;49.936;11.344;2023-07-08T12:16:35;96992.97;;;37.70;16.16
25855;BME280;13680;49.936;11.344;2023-07-08T12:19:02;96999.41;;;38.34;16.88
25855;BME280;13680;49.936;11.344;2023-07-08T12:21:30;96992.06;;;38.52;16.93
25855;BME280;13680;49.936;11.344;2023-07-08T12:24:03;96994.56;;;38.35;16.96
25855;BME280;13680;49.936;11.344;2023-07-08T12:26:28;96993.78;;;38.49;15.01
25855;BME280;13680;49.936;11.344;2023-07-08T12:28:56;96990.88;;;37.80;15.45
25855;BME280;13680;49.936;11.344;2023-07-08T12:31:22;96988.91;;;37.95;15.52
25855;BME280;13680;49.936;11.344;2023-07-08T12:33:48;96985.69;;;38.51;15.72
25855;BME280;13680;49.936;11.344;2023-07-08T12:36:23;96982.31;;;38.77;15.48
25855;BME280;13680;49.936;11.344;2023-07-08T12:38:51;96984.91;;;38.51;16.65
25855;BME280;13680;49.936;11.344;2023-07-08T12:41:20;96978.81;;;38.52;17.06
25855;BME280;13680;49.936;11.344;2023-07-08T12:43:46;96978.41;;;39.19;15.85
25855;BME280;13680;49.936;11.344;2023-07-08T12:46:13;96972.69;;;39.28;16.23
25855;BME280;13680;49.936;11.344;2023-07-08T12:48:40;96974.91;;;39.24;16.15
25855;BME280;13680;49.936;11.344;2023-07-08T12:51:11;96978.75;;;38.91;15.55
25855;BME280;13680;49.936;11.344;2023-07-08T12:53:37;96980.56;;;38.94;17.37
25855;BME280;13680;49.936;11.344;2023-07-08T12:56:03;96978.69;;;38.46;15.98
25855;BME280;13680;49.936;11.344;2023-07-08T12:58:31;96982.38;;;38.53;16.02
25855;BME280;13680;49.936;11.344;2023-07-08T13:00:59;96970.84;;;38.66;16.38
25855;BME280;13680;49.936;11.344;2023-07-08T13:03:30;96983.16;;;39.28;15.61
25855;BME280;13680;49.936;11.344;2023-07-08T13:05:59;96974.88;;;39.96;15.70
25855;BME280;13680;49.936;11.344;2023-07-08T13:08:29;96987.44;;;38.93;15.75
25855;BME280;13680;49.936;11.344;2023-07-08T13:10:57;96978.94;;;39.38;15.63
25855;BME280;13680;49.936;11.344;2023-07-08T13:13:25;96976.94;;;40.16;14.88
25855;BME280;13680;49.936;11.344;2023-07-08T13:15:52;96975.88;;;40.60;15.02
25855;BME280;13680;49.936;11.344;2023-07-08T13:18:20;96984.88;;;39.97;14.59
25855;BME280;13680;49.936;11.344;2023-07-08T13:20:52;96978.88;;;39.33;15.71
25855;BME280;13680;49.936;11.344;2023-07-08T13:23:18;96984.97;;;40.23;14.21
25855;BME280;13680;49.936;11.344;2023-07-08T13:25:50;96971.97;;;40.31;13.62
25855;BME280;13680;49.936;11.344;2023-07-08T13:33:28;96972.66;;;40.73;15.06
25855;BME280;13680;49.936;11.344;2023-07-08T13:35:53;96965.50;;;41.04;13.77
25855;BME280;13680;49.936;11.344;2023-07-08T13:38:22;96963.72;;;41.06;14.52
25855;BME280;13680;49.936;11.344;2023-07-08T13:40:56;96974.88;;;41.21;13.54
25855;BME280;13680;49.936;11.344;2023-07-08T13:43:27;96966.59;;;41.50;13.16
25855;BME280;13680;49.936;11.344;2023-07-08T13:45:53;96971.56;;;40.97;13.57
25855;BME280;13680;49.936;11.344;2023-07-08T13:48:30;96975.97;;;40.45;14.41